createdAt,value
2023-03-05T00:01:57.636Z,3.55
2023-03-05T00:04:24.978Z,4.10
2023-03-05T00:06:52.240Z,3.83
2023-03-05T00:09:19.555Z,3.42
2023-03-05T00:11:46.978Z,4.43
2023-03-05T00:14:14.343Z,4.25
2023-03-05T00:16:41.785Z,3.72
2023-03-05T00:19:09.105Z,3.92
2023-03-05T00:21:38.379Z,3.65
2023-03-05T00:24:08.114Z,4.35
2023-03-05T00:26:37.106Z,4.32
2023-03-05T00:29:04.707Z,4.25
2023-03-05T00:31:34.357Z,4.28
2023-03-05T00:34:03.237Z,4.53
2023-03-05T00:36:30.786Z,3.97
2023-03-05T00:38:58.616Z,4.70
2023-03-05T00:41:25.948Z,3.97
2023-03-05T00:43:53.365Z,4.30
2023-03-05T00:46:20.835Z,3.60
2023-03-05T00:48:48.162Z,3.92
2023-03-05T00:51:15.429Z,3.72
2023-03-05T00:53:42.751Z,4.53
2023-03-05T00:56:16.356Z,4.32
2023-03-05T00:58:43.639Z,4.15
2023-03-05T01:01:10.941Z,4.30
2023-03-05T01:03:38.305Z,4.78
2023-03-05T01:06:09.040Z,5.68
2023-03-05T01:08:36.858Z,4.60
2023-03-05T01:11:04.584Z,4.95
2023-03-05T01:13:31.907Z,4.90
2023-03-05T01:15:59.327Z,5.03
2023-03-05T01:18:26.746Z,4.32
2023-03-05T01:20:54.106Z,5.35
2023-03-05T01:23:21.459Z,4.70
2023-03-05T01:25:56.100Z,4.70
2023-03-05T01:28:23.592Z,4.80
2023-03-05T01:30:51.147Z,4.78
2023-03-05T01:33:18.717Z,5.53
2023-03-05T01:35:50.004Z,3.70
2023-03-05T01:38:17.402Z,4.75
2023-03-05T01:40:45.103Z,3.80
2023-03-05T01:43:12.435Z,5.55
2023-03-05T01:45:40.767Z,5.65
2023-03-05T01:48:08.064Z,5.05
2023-03-05T01:50:35.641Z,3.92
2023-03-05T01:53:04.884Z,4.30
2023-03-05T01:55:33.262Z,5.07
2023-03-05T01:58:03.428Z,4.30
2023-03-05T02:00:32.717Z,4.45
2023-03-05T02:03:02.613Z,4.43
2023-03-05T02:05:31.710Z,4.15
2023-03-05T02:08:03.136Z,4.65
2023-03-05T02:10:35.165Z,4.28
2023-03-05T02:13:04.280Z,4.60
2023-03-05T02:15:31.867Z,5.40
2023-03-05T02:17:59.183Z,5.07
2023-03-05T02:20:28.176Z,5.03
2023-03-05T02:22:55.514Z,4.38
2023-03-05T02:25:30.798Z,5.43
2023-03-05T02:28:00.961Z,5.53
2023-03-05T02:30:28.559Z,5.47
2023-03-05T02:32:56.401Z,7.20
2023-03-05T02:35:23.859Z,7.95
2023-03-05T02:37:51.272Z,6.63
2023-03-05T02:40:18.734Z,6.93
2023-03-05T02:42:46.802Z,6.63
2023-03-05T02:45:14.356Z,7.20
2023-03-05T02:47:41.906Z,6.78
2023-03-05T02:50:09.632Z,6.75
2023-03-05T02:52:37.072Z,7.03
2023-03-05T02:55:04.916Z,6.43
2023-03-05T02:57:32.272Z,6.90
2023-03-05T02:59:59.818Z,6.25
2023-03-05T03:02:27.239Z,6.78
2023-03-05T03:04:54.557Z,6.57
2023-03-05T03:07:21.873Z,7.55
2023-03-05T03:09:49.317Z,5.80
2023-03-05T03:12:16.802Z,6.78
2023-03-05T03:14:44.337Z,8.48
2023-03-05T03:17:15.126Z,6.20
2023-03-05T03:19:42.964Z,5.93
2023-03-05T03:22:10.731Z,6.55
2023-03-05T03:24:38.801Z,6.20
2023-03-05T03:27:06.146Z,5.50
2023-03-05T03:29:33.723Z,6.20
2023-03-05T03:32:01.146Z,5.07
2023-03-05T03:34:28.846Z,4.90
2023-03-05T03:36:56.433Z,5.32
2023-03-05T03:39:25.714Z,4.80
2023-03-05T03:41:53.705Z,5.85
2023-03-05T03:44:21.983Z,4.60
2023-03-05T03:46:50.224Z,4.53
2023-03-05T03:49:25.128Z,4.22
2023-03-05T03:51:54.420Z,4.57
2023-03-05T03:54:23.004Z,4.32
2023-03-05T03:56:50.664Z,3.80
2023-03-05T03:59:17.901Z,4.97
2023-03-05T04:01:45.270Z,3.80
2023-03-05T04:04:13.265Z,3.97
2023-03-05T04:06:40.916Z,3.95
2023-03-05T04:09:08.478Z,4.78
2023-03-05T04:11:36.419Z,3.92
2023-03-05T04:14:04.315Z,4.03
2023-03-05T04:16:31.915Z,4.63
2023-03-05T04:18:59.205Z,4.50
2023-03-05T04:21:26.498Z,4.55
2023-03-05T04:23:54.089Z,4.43
2023-03-05T04:26:21.544Z,4.72
2023-03-05T04:28:49.570Z,3.97
2023-03-05T04:31:17.668Z,4.45
2023-03-05T04:33:45.036Z,5.03
2023-03-05T04:36:12.451Z,4.28
2023-03-05T04:38:39.861Z,4.50
2023-03-05T04:41:07.331Z,4.72
2023-03-05T04:43:34.713Z,5.32
2023-03-05T04:46:02.049Z,4.53
2023-03-05T04:48:29.414Z,3.92
2023-03-05T04:50:58.025Z,5.45
2023-03-05T04:53:25.470Z,4.25
2023-03-05T04:55:56.100Z,5.10
2023-03-05T04:58:23.903Z,4.32
2023-03-05T05:00:51.301Z,3.95
2023-03-05T05:03:18.917Z,5.28
2023-03-05T05:05:46.355Z,4.22
2023-03-05T05:08:13.555Z,4.88
2023-03-05T05:10:41.583Z,4.68
2023-03-05T05:13:08.877Z,5.35
2023-03-05T05:15:36.220Z,5.07
2023-03-05T05:18:03.567Z,4.50
2023-03-05T05:20:31.013Z,4.47
2023-03-05T05:22:58.275Z,4.50
2023-03-05T05:25:25.632Z,5.53
2023-03-05T05:27:52.803Z,5.63
2023-03-05T05:30:20.085Z,4.50
2023-03-05T05:32:47.241Z,4.38
2023-03-05T05:35:14.502Z,4.88
2023-03-05T05:37:41.889Z,4.93
2023-03-05T05:40:09.764Z,5.05
2023-03-05T05:42:37.265Z,4.70
2023-03-05T05:45:04.672Z,5.10
2023-03-05T05:47:32.078Z,4.25
2023-03-05T05:49:59.445Z,4.07
2023-03-05T05:52:26.778Z,4.63
2023-03-05T05:54:54.208Z,4.60
2023-03-05T05:57:21.541Z,5.18
2023-03-05T05:59:48.996Z,4.75
2023-03-05T06:02:16.582Z,4.55
2023-03-05T06:04:43.952Z,4.90
2023-03-05T06:07:11.198Z,4.90
2023-03-05T06:09:38.546Z,5.22
2023-03-05T06:12:06.287Z,4.88
2023-03-05T06:14:35.814Z,5.05
2023-03-05T06:17:03.280Z,5.30
2023-03-05T06:19:30.750Z,5.95
2023-03-05T06:21:58.394Z,5.43
2023-03-05T06:24:25.780Z,5.90
2023-03-05T06:26:53.063Z,6.40
2023-03-05T06:29:20.462Z,6.53
2023-03-05T06:31:47.842Z,6.32
2023-03-05T06:34:15.378Z,6.95
2023-03-05T06:36:46.693Z,5.82
2023-03-05T06:39:14.080Z,6.45
2023-03-05T06:41:41.344Z,7.60
2023-03-05T06:44:08.661Z,6.53
2023-03-05T06:46:39.897Z,6.50
2023-03-05T06:49:09.418Z,6.22
2023-03-05T06:51:38.071Z,6.57
2023-03-05T06:54:10.444Z,6.32
2023-03-05T06:56:39.049Z,5.43
2023-03-05T06:59:07.039Z,6.93
2023-03-05T07:01:34.782Z,6.45
2023-03-05T07:04:03.387Z,6.85
2023-03-05T07:06:33.133Z,7.13
2023-03-05T07:09:02.571Z,7.88
2023-03-05T07:11:31.340Z,6.88
2023-03-05T07:13:59.242Z,5.93
2023-03-05T07:16:27.930Z,7.30
2023-03-05T07:18:55.808Z,6.85
2023-03-05T07:21:24.501Z,6.30
2023-03-05T07:23:53.633Z,7.25
2023-03-05T07:26:21.505Z,7.28
2023-03-05T07:28:49.101Z,6.57
2023-03-05T07:31:19.359Z,6.93
2023-03-05T07:33:47.239Z,7.28
2023-03-05T07:36:14.692Z,6.85
2023-03-05T07:38:42.192Z,7.00
2023-03-05T07:41:11.976Z,5.65
2023-03-05T07:43:40.684Z,5.45
2023-03-05T07:46:08.960Z,6.93
2023-03-05T07:48:36.647Z,5.35
2023-03-05T07:51:05.101Z,5.13
2023-03-05T07:53:32.501Z,4.43
2023-03-05T07:55:59.795Z,5.70
2023-03-05T07:58:27.429Z,3.70
2023-03-05T08:00:54.753Z,3.78
2023-03-05T08:03:22.015Z,3.90
2023-03-05T08:05:49.271Z,5.32
2023-03-05T08:08:16.587Z,4.63
2023-03-05T08:10:43.902Z,4.78
2023-03-05T08:13:11.251Z,5.30
2023-03-05T08:15:38.954Z,4.18
2023-03-05T08:18:06.443Z,4.35
2023-03-05T08:20:36.257Z,4.50
2023-03-05T08:23:03.606Z,4.65
2023-03-05T08:25:31.647Z,4.10
2023-03-05T08:27:58.922Z,5.00
2023-03-05T08:30:27.632Z,4.18
2023-03-05T08:32:55.269Z,3.88
2023-03-05T08:35:22.820Z,4.47
2023-03-05T08:37:50.179Z,3.83
2023-03-05T08:40:20.870Z,3.70
2023-03-05T08:42:48.247Z,3.58
2023-03-05T08:45:15.576Z,4.43
2023-03-05T08:47:42.794Z,3.90
2023-03-05T08:50:10.517Z,4.30
2023-03-05T08:52:37.783Z,3.65
2023-03-05T08:55:05.161Z,3.58
2023-03-05T08:57:32.385Z,6.80
2023-03-05T08:59:59.632Z,2.97
2023-03-05T09:02:27.071Z,2.97
2023-03-05T09:04:54.353Z,2.97
2023-03-05T09:07:21.668Z,3.08
2023-03-05T09:09:48.937Z,2.88
2023-03-05T09:12:16.313Z,3.10
2023-03-05T09:14:43.754Z,3.05
2023-03-05T09:17:10.963Z,3.17
2023-03-05T09:19:38.484Z,2.75
2023-03-05T09:22:05.716Z,3.15
2023-03-05T09:24:32.945Z,3.13
2023-03-05T09:27:03.407Z,3.25
2023-03-05T09:29:31.662Z,2.33
2023-03-05T09:31:59.156Z,2.28
2023-03-05T09:34:26.533Z,2.33
2023-03-05T09:36:53.773Z,2.67
2023-03-05T09:39:23.159Z,3.05
2023-03-05T09:41:53.411Z,2.60
2023-03-05T09:44:29.821Z,2.90
2023-03-05T09:47:15.822Z,2.80
2023-03-05T09:49:46.075Z,3.05
2023-03-05T09:52:21.057Z,2.72
2023-03-05T09:54:54.873Z,2.65
2023-03-05T09:57:28.299Z,3.72
2023-03-05T10:00:02.501Z,3.25
2023-03-05T10:02:36.172Z,2.88
2023-03-05T10:05:27.043Z,2.97
2023-03-05T10:07:56.150Z,3.03
2023-03-05T10:10:40.432Z,2.50
2023-03-05T10:13:27.957Z,2.78
2023-03-05T10:15:55.375Z,2.33
2023-03-05T10:18:28.149Z,2.88
2023-03-05T10:21:05.779Z,3.00
2023-03-05T10:23:40.337Z,2.97
2023-03-05T10:26:11.173Z,3.30
2023-03-05T10:28:57.354Z,2.97
2023-03-05T10:31:35.143Z,2.50
2023-03-05T10:34:09.509Z,1.80
2023-03-05T10:36:46.997Z,1.80
2023-03-05T10:39:33.439Z,1.90
2023-03-05T10:42:12.054Z,2.20
2023-03-05T10:44:47.283Z,2.55
2023-03-05T10:47:22.829Z,2.38
2023-03-05T10:49:54.044Z,2.00
2023-03-05T10:52:24.993Z,2.10
2023-03-05T10:54:52.259Z,2.30
2023-03-05T10:57:20.782Z,1.95
2023-03-05T10:59:53.283Z,2.35
2023-03-05T11:02:21.756Z,2.03
2023-03-05T11:04:49.370Z,1.92
2023-03-05T11:07:16.749Z,1.92
2023-03-05T11:09:44.730Z,2.05
2023-03-05T11:12:15.052Z,2.30
2023-03-05T11:14:49.170Z,2.10
2023-03-05T11:17:36.347Z,2.05
2023-03-05T11:20:22.492Z,1.67
2023-03-05T11:23:04.047Z,1.85
2023-03-05T11:25:31.474Z,1.90
2023-03-05T11:28:00.581Z,2.03
2023-03-05T11:30:35.757Z,1.80
2023-03-05T11:33:19.712Z,2.20
2023-03-05T11:35:48.572Z,1.90
2023-03-05T11:38:18.454Z,2.30
2023-03-05T11:40:46.519Z,2.20
2023-03-05T11:43:16.795Z,2.00
2023-03-05T11:45:48.104Z,1.70
2023-03-05T11:48:19.504Z,1.35
2023-03-05T11:50:50.203Z,1.50
2023-03-05T11:53:28.349Z,1.70
2023-03-05T11:55:55.795Z,1.70
2023-03-05T11:58:23.151Z,1.40
2023-03-05T12:00:51.172Z,1.77
2023-03-05T12:03:20.570Z,1.67
2023-03-05T12:05:49.722Z,2.42
2023-03-05T12:08:21.495Z,2.28
2023-03-05T12:10:48.911Z,1.80
2023-03-05T12:13:24.308Z,1.50
2023-03-05T12:15:58.244Z,1.55
2023-03-05T12:18:39.173Z,1.63
2023-03-05T12:21:26.816Z,1.60
2023-03-05T12:24:02.200Z,1.15
2023-03-05T12:26:51.395Z,1.40
2023-03-05T12:29:41.284Z,1.10
2023-03-05T12:32:31.755Z,1.30
2023-03-05T12:34:59.002Z,1.23
2023-03-05T12:37:26.692Z,1.25
2023-03-05T12:40:07.270Z,1.40
2023-03-05T12:42:38.637Z,1.20
2023-03-05T12:45:13.181Z,1.33
2023-03-05T12:47:41.543Z,1.63
2023-03-05T12:50:27.827Z,1.50
2023-03-05T12:53:07.377Z,1.55
2023-03-05T12:55:34.890Z,1.48
2023-03-05T12:58:13.843Z,1.73
2023-03-05T13:00:45.845Z,1.70
2023-03-05T13:03:19.012Z,2.05
2023-03-05T13:05:51.380Z,1.58
2023-03-05T13:08:21.882Z,1.40
2023-03-05T13:11:09.329Z,1.80
2023-03-05T13:13:39.099Z,1.58
2023-03-05T13:16:07.062Z,1.45
2023-03-05T13:18:36.049Z,1.50
2023-03-05T13:21:05.216Z,1.92
2023-03-05T13:23:33.192Z,1.35
2023-03-05T13:26:18.872Z,1.45
2023-03-05T13:29:03.208Z,1.95
2023-03-05T13:31:31.106Z,2.15
2023-03-05T13:34:00.303Z,1.73
2023-03-05T13:36:27.878Z,1.45
2023-03-05T13:38:55.409Z,1.55
2023-03-05T13:41:24.592Z,2.45
2023-03-05T13:43:53.437Z,1.40
2023-03-05T13:46:26.712Z,1.30
2023-03-05T13:48:54.152Z,1.90
2023-03-05T13:51:21.805Z,1.73
2023-03-05T13:53:51.163Z,1.83
2023-03-05T13:56:20.476Z,2.17
2023-03-05T13:58:52.587Z,1.80
2023-03-05T14:01:23.187Z,1.80
2023-03-05T14:03:56.133Z,2.00
2023-03-05T14:06:24.751Z,1.83
2023-03-05T14:08:53.392Z,1.40
2023-03-05T14:11:24.465Z,1.52
2023-03-05T14:13:59.136Z,1.80
2023-03-05T14:16:28.146Z,1.73
2023-03-05T14:18:55.417Z,1.50
2023-03-05T14:21:23.069Z,1.95
2023-03-05T14:23:53.025Z,1.70
2023-03-05T14:26:28.980Z,2.60
2023-03-05T14:28:57.817Z,1.92
2023-03-05T14:31:25.531Z,2.15
2023-03-05T14:33:53.080Z,1.60
2023-03-05T14:36:27.092Z,1.98
2023-03-05T14:38:54.726Z,1.80
2023-03-05T14:41:23.184Z,2.38
2023-03-05T14:43:50.502Z,1.90
2023-03-05T14:46:17.924Z,1.63
2023-03-05T14:48:46.132Z,2.35
2023-03-05T14:51:13.493Z,1.73
2023-03-05T14:53:47.670Z,2.17
2023-03-05T14:56:28.592Z,1.77
2023-03-05T14:58:57.513Z,1.63
2023-03-05T15:01:25.481Z,1.90
2023-03-05T15:03:52.834Z,1.83
2023-03-05T15:06:30.725Z,1.60
2023-03-05T15:08:57.970Z,1.65
2023-03-05T15:11:25.288Z,2.35
2023-03-05T15:13:52.529Z,1.80
2023-03-05T15:16:20.131Z,1.70
2023-03-05T15:18:47.414Z,1.90
2023-03-05T15:21:14.673Z,2.30
2023-03-05T15:23:41.931Z,2.40
2023-03-05T15:26:10.098Z,2.15
2023-03-05T15:28:38.121Z,1.83
2023-03-05T15:31:06.045Z,1.45
2023-03-05T15:33:33.698Z,1.83
2023-03-05T15:36:01.118Z,1.77
2023-03-05T15:38:28.355Z,1.75
2023-03-05T15:40:55.747Z,1.77
2023-03-05T15:43:23.047Z,2.35
2023-03-05T15:45:50.352Z,2.72
2023-03-05T15:48:17.599Z,1.85
2023-03-05T15:50:45.400Z,2.13
2023-03-05T15:53:16.313Z,1.88
2023-03-05T15:55:44.058Z,2.15
2023-03-05T15:58:14.389Z,1.85
2023-03-05T16:00:41.883Z,1.92
2023-03-05T16:03:09.181Z,3.10
2023-03-05T16:05:37.572Z,2.13
2023-03-05T16:08:05.039Z,2.35
2023-03-05T16:10:32.503Z,2.10
2023-03-05T16:13:04.999Z,3.20
2023-03-05T16:15:33.203Z,2.05
2023-03-05T16:18:03.269Z,2.50
2023-03-05T16:20:30.521Z,2.35
2023-03-05T16:22:57.942Z,2.30
2023-03-05T16:25:25.212Z,2.97
2023-03-05T16:27:52.549Z,2.42
2023-03-05T16:30:20.050Z,2.30
2023-03-05T16:32:47.371Z,2.28
2023-03-05T16:35:14.738Z,2.13
2023-03-05T16:37:42.318Z,2.30
2023-03-05T16:40:10.878Z,1.60
2023-03-05T16:42:38.166Z,1.70
2023-03-05T16:45:06.125Z,1.88
2023-03-05T16:47:33.635Z,2.03
2023-03-05T16:50:01.162Z,2.30
2023-03-05T16:52:29.118Z,1.90
2023-03-05T16:54:56.380Z,2.83
2023-03-05T16:57:25.747Z,2.55
2023-03-05T16:59:54.375Z,1.98
2023-03-05T17:02:21.720Z,1.80
2023-03-05T17:04:50.499Z,2.92
2023-03-05T17:07:18.173Z,2.90
2023-03-05T17:09:45.971Z,2.50
2023-03-05T17:12:13.314Z,2.22
2023-03-05T17:14:40.560Z,2.10
2023-03-05T17:17:08.199Z,2.08
2023-03-05T17:19:35.514Z,3.47
2023-03-05T17:22:03.101Z,3.28
2023-03-05T17:24:32.988Z,2.80
2023-03-05T17:27:00.728Z,2.10
2023-03-05T17:29:28.077Z,3.20
2023-03-05T17:31:55.530Z,2.22
2023-03-05T17:34:35.453Z,2.55
2023-03-05T17:37:04.329Z,2.72
2023-03-05T17:39:31.558Z,2.10
2023-03-05T17:41:58.922Z,2.67
2023-03-05T17:44:26.160Z,2.42
2023-03-05T17:46:53.481Z,2.67
2023-03-05T17:49:22.143Z,3.25
2023-03-05T17:51:49.323Z,2.63
2023-03-05T17:54:16.790Z,2.55
2023-03-05T17:56:44.114Z,2.40
2023-03-05T17:59:11.498Z,2.40
2023-03-05T18:01:38.792Z,2.33
2023-03-05T18:04:06.141Z,2.47
2023-03-05T18:06:33.472Z,2.20
2023-03-05T18:09:00.674Z,2.45
2023-03-05T18:11:30.222Z,2.42
2023-03-05T18:13:57.728Z,2.13
2023-03-05T18:16:25.290Z,2.45
2023-03-05T18:18:52.956Z,2.30
2023-03-05T18:21:23.104Z,2.50
2023-03-05T18:23:51.096Z,2.55
2023-03-05T18:26:18.500Z,3.78
2023-03-05T18:28:45.836Z,3.33
2023-03-05T18:31:13.155Z,2.60
2023-03-05T18:33:41.159Z,2.53
2023-03-05T18:36:10.760Z,2.40
2023-03-05T18:38:38.562Z,2.90
2023-03-05T18:41:06.524Z,2.60
2023-03-05T18:43:33.750Z,2.88
2023-03-05T18:46:04.821Z,3.00
2023-03-05T18:48:32.129Z,2.42
2023-03-05T18:51:00.297Z,3.58
2023-03-05T18:53:29.358Z,3.90
2023-03-05T18:55:56.544Z,3.40
2023-03-05T18:58:25.922Z,3.38
2023-03-05T19:00:53.316Z,2.83
2023-03-05T19:03:22.566Z,3.65
2023-03-05T19:05:51.203Z,4.15
2023-03-05T19:08:18.778Z,2.90
2023-03-05T19:10:46.195Z,3.20
2023-03-05T19:13:39.967Z,2.70
2023-03-05T19:16:37.081Z,3.30
2023-03-05T19:19:20.195Z,3.53
2023-03-05T19:21:48.903Z,2.58
2023-03-05T19:24:16.659Z,2.83
2023-03-05T19:26:44.709Z,3.90
2023-03-05T19:29:12.326Z,4.82
2023-03-05T19:31:39.657Z,4.35
2023-03-05T19:34:07.592Z,3.88
2023-03-05T19:36:36.327Z,4.53
2023-03-05T19:39:05.186Z,4.72
2023-03-05T19:41:32.472Z,7.00
2023-03-05T19:43:59.719Z,4.90
2023-03-05T19:46:27.128Z,5.22
2023-03-05T19:48:54.500Z,5.20
2023-03-05T19:51:22.493Z,4.70
2023-03-05T19:53:49.934Z,4.95
2023-03-05T19:56:17.740Z,5.63
2023-03-05T19:58:45.578Z,5.68
2023-03-05T20:01:17.624Z,5.93
2023-03-05T20:03:46.046Z,4.47
2023-03-05T20:06:14.685Z,3.78
2023-03-05T20:08:41.953Z,4.47
2023-03-05T20:11:10.805Z,4.20
2023-03-05T20:13:38.645Z,4.30
2023-03-05T20:16:06.477Z,4.28
2023-03-05T20:18:34.081Z,4.05
2023-03-05T20:21:03.379Z,3.72
2023-03-05T20:23:30.907Z,3.45
2023-03-05T20:25:58.165Z,4.70
2023-03-05T20:28:28.187Z,4.22
2023-03-05T20:30:56.250Z,4.07
2023-03-05T20:33:23.938Z,3.55
2023-03-05T20:35:51.603Z,2.92
2023-03-05T20:38:24.994Z,3.83
2023-03-05T20:40:56.271Z,3.40
2023-03-05T20:43:24.189Z,3.05
2023-03-05T20:45:53.183Z,2.85
2023-03-05T20:48:20.682Z,3.45
2023-03-05T20:50:48.162Z,2.78
2023-03-05T20:53:15.818Z,2.63
2023-03-05T20:55:43.207Z,2.72
2023-03-05T20:58:10.842Z,2.85
2023-03-05T21:00:38.690Z,3.10
2023-03-05T21:03:06.160Z,3.22
2023-03-05T21:05:33.785Z,2.78
2023-03-05T21:08:01.675Z,2.70
2023-03-05T21:10:29.106Z,3.47
2023-03-05T21:12:56.530Z,3.08
2023-03-05T21:15:26.379Z,2.97
2023-03-05T21:17:54.057Z,5.43
2023-03-05T21:20:22.885Z,10.38
2023-03-05T21:22:50.385Z,8.10
2023-03-05T21:25:21.905Z,5.85
2023-03-05T21:27:57.440Z,4.97
2023-03-05T21:30:34.409Z,6.93
2023-03-05T21:33:02.659Z,4.82
2023-03-05T21:35:32.960Z,4.70
2023-03-05T21:38:00.966Z,3.20
2023-03-05T21:40:28.952Z,4.18
2023-03-05T21:42:56.497Z,3.35
2023-03-05T21:45:25.036Z,3.60
2023-03-05T21:47:52.837Z,3.92
2023-03-05T21:50:21.383Z,4.20
2023-03-05T21:52:48.601Z,3.78
2023-03-05T21:55:17.504Z,4.30
2023-03-05T21:57:45.130Z,4.10
2023-03-05T22:00:13.310Z,4.63
2023-03-05T22:02:41.308Z,4.22
2023-03-05T22:05:12.767Z,4.72
2023-03-05T22:07:40.576Z,4.97
2023-03-05T22:10:08.348Z,4.82
2023-03-05T22:12:52.720Z,3.95
2023-03-05T22:15:20.456Z,4.50
2023-03-05T22:17:48.866Z,4.75
2023-03-05T22:20:16.503Z,3.65
2023-03-05T22:22:43.724Z,3.55
2023-03-05T22:25:13.819Z,5.35
2023-03-05T22:27:41.542Z,3.25
2023-03-05T22:30:10.010Z,3.03
2023-03-05T22:32:37.612Z,4.28
2023-03-05T22:35:06.847Z,5.28
2023-03-05T22:37:34.204Z,5.22
2023-03-05T22:40:01.509Z,5.07
2023-03-05T22:42:28.863Z,5.55
2023-03-05T22:44:57.315Z,6.45
2023-03-05T22:47:25.397Z,5.45
2023-03-05T22:49:52.944Z,6.38
2023-03-05T22:52:20.846Z,6.55
2023-03-05T22:54:48.311Z,5.03
2023-03-05T22:57:15.740Z,4.57
2023-03-05T22:59:43.201Z,7.43
2023-03-05T23:02:10.785Z,4.78
2023-03-05T23:04:49.097Z,3.47
2023-03-05T23:07:17.832Z,3.80
2023-03-05T23:09:45.347Z,3.10
2023-03-05T23:12:13.359Z,3.85
2023-03-05T23:14:40.632Z,3.20
2023-03-05T23:17:08.024Z,4.68
2023-03-05T23:19:39.814Z,4.05
2023-03-05T23:22:07.612Z,4.03
2023-03-05T23:24:35.070Z,3.85
2023-03-05T23:27:05.328Z,3.80
2023-03-05T23:29:40.479Z,3.78
2023-03-05T23:32:08.073Z,4.32
2023-03-05T23:34:36.661Z,5.03
2023-03-05T23:37:03.891Z,4.68
2023-03-05T23:39:31.186Z,6.13
2023-03-05T23:41:58.457Z,7.28
2023-03-05T23:44:25.668Z,6.05
2023-03-05T23:46:53.040Z,5.80
2023-03-05T23:49:20.551Z,4.25
2023-03-05T23:51:47.820Z,3.83
2023-03-05T23:54:15.097Z,4.13
2023-03-05T23:56:42.331Z,4.85
2023-03-05T23:59:09.581Z,4.47
